Terminal Aerodrome Forecast
Issued by NWS

Home | Current Version | Previous Version | Text Only | Print | Product List | Glossary On
Versions: 1 2 3 4 5 6 7 8 9 10 11 12 13 14 15
764
FTUS45 KVEF 200235 AAA
TAFBIH
TAF AMD
KBIH 200235Z 2003/2024 34011KT P6SM FEW250
     FM201400 VRB06KT P6SM SCT250
     FM202200 24012KT P6SM SCT250=

USA.gov is the U.S. government's official web portal to all federal, state and local government web resources and services.